Time;durP1;ratioP1;P1;durP2;ratioP2;P2;SDS_P1;SDS_P2;PMS_P1;PMS_P2;Temp;Humidity;BMP_temperature;BMP_pressure;BME280_temperature;BME280_humidity;BME280_pressure;Samples;Min_cycle;Max_cycle;Signal;HPM_P1;HPM_P2
2021/07/26 00:01:03;;;;;;;0.50;0.50;;;;;;;14.67;93.25;92411.16;4856736;29;20112;-94
2021/07/26 00:04:23;;;;;;;0.43;0.43;;;;;;;14.31;93.48;92364.06;4866939;29;20124;-94
2021/07/26 00:06:59;;;;;;;0.20;0.20;;;;;;;14.25;94.80;92384.53;4850237;29;20049;-96
2021/07/26 00:10:03;;;;;;;0.80;0.63;;;;;;;14.11;94.96;92368.13;4866280;29;20044;-96
2021/07/26 00:13:14;;;;;;;0.40;0.40;;;;;;;14.12;94.08;92343.34;4858638;29;20052;-93
2021/07/26 00:16:11;;;;;;;0.30;0.30;;;;;;;14.51;93.42;92405.56;4862699;29;20057;-96
2021/07/26 00:19:12;;;;;;;;;;;;;;;;;;;;;
2021/07/26 00:22:06;;;;;;;0.43;0.43;;;;;;;14.67;90.27;92432.22;4881362;29;20049;-94
2021/07/26 00:25:24;;;;;;;;;;;;;;;;;;;;;
2021/07/26 00:28:07;;;;;;;0.30;0.30;;;;;;;14.86;89.73;92441.66;4867478;29;20049;-94
2021/07/26 00:31:35;;;;;;;;;;;;;;;;;;;;;
2021/07/26 00:34:33;;;;;;;0.57;0.57;;;;;;;14.46;92.28;92373.38;4901388;29;20047;-96
2021/07/26 00:37:31;;;;;;;;;;;;;;;;;;;;;
2021/07/26 00:40:55;;;;;;;;;;;;;;;;;;;;;
2021/07/26 00:44:24;;;;;;;0.30;0.30;;;;;;;14.52;90.82;92403.69;4904891;29;20529;-96
2021/07/26 00:47:36;;;;;;;0.30;0.30;;;;;;;14.56;92.09;92399.41;4857688;29;20072;-96
2021/07/26 00:51:02;;;;;;;;;;;;;;;;;;;;;
2021/07/26 01:01:17;;;;;;;0.32;0.32;;;;;;;14.26;91.38;92388.72;4892792;29;20049;-94
2021/07/26 01:15:44;;;;;;;0.30;0.30;;;;;;;14.44;88.68;92349.19;4964890;23;20075;-95
2021/07/26 01:19:06;;;;;;;;;;;;;;;;;;;;;
2021/07/26 01:25:31;;;;;;;0.80;0.80;;;;;;;14.84;88.66;92452.53;4802947;29;20427;-95
2021/07/26 01:29:01;;;;;;;0.50;0.50;;;;;;;14.65;88.58;92410.69;4808223;29;20055;-94
2021/07/26 01:32:14;;;;;;;0.88;0.80;;;;;;;14.51;89.35;92396.91;4810883;29;20046;-95
2021/07/26 01:34:53;;;;;;;;;;;;;;;;;;;;;
2021/07/26 01:38:10;;;;;;;;;;;;;;;;;;;;;
2021/07/26 01:41:19;;;;;;;0.28;0.28;;;;;;;14.70;90.03;92428.19;4811632;29;20071;-95
2021/07/26 01:44:06;;;;;;;0.20;0.20;;;;;;;14.56;89.98;92404.66;4810955;29;20058;-96
2021/07/26 01:47:34;;;;;;;;;;;;;;;;;;;;;
2021/07/26 01:53:18;;;;;;;0.30;0.30;;;;;;;14.36;89.42;92353.38;4807960;29;20269;-96
2021/07/26 01:56:41;;;;;;;0.65;0.65;;;;;;;14.33;88.75;92344.25;4811172;29;20115;-94
2021/07/26 01:59:51;;;;;;;0.30;0.30;;;;;;;14.58;88.92;92361.13;4816255;29;20726;-94
2021/07/26 02:02:37;;;;;;;0.30;0.30;;;;;;;14.41;87.30;92326.09;4792527;29;20050;-95
2021/07/26 02:05:29;;;;;;;0.30;0.30;;;;;;;14.45;87.15;92324.41;4789749;29;20095;-96
2021/07/26 02:08:20;;;;;;;1.17;0.98;;;;;;;14.42;87.04;92299.47;4796625;29;20060;-96
2021/07/26 02:10:59;;;;;;;0.30;0.30;;;;;;;14.71;86.76;92346.22;4811698;29;20061;-95
2021/07/26 02:13:46;;;;;;;0.35;0.35;;;;;;;14.57;86.47;92324.56;4806603;29;20099;-94
2021/07/26 02:16:36;;;;;;;;;;;;;;;;;;;;;
2021/07/26 02:22:57;;;;;;;;;;;;;;;;;;;;;
2021/07/26 02:26:04;;;;;;;;;;;;;;;;;;;;;
2021/07/26 02:28:54;;;;;;;;;;;;;;;;;;;;;
2021/07/26 02:31:53;;;;;;;0.52;0.52;;;;;;;14.32;89.19;92328.75;4812289;29;20101;-95
2021/07/26 02:37:56;;;;;;;0.40;0.40;;;;;;;14.63;89.83;92362.81;4793187;29;20059;-95
2021/07/26 02:40:44;;;;;;;;;;;;;;;;;;;;;
2021/07/26 02:43:35;;;;;;;;;;;;;;;;;;;;;
2021/07/26 02:46:50;;;;;;;0.47;0.47;;;;;;;14.31;89.76;92314.06;4804526;29;20058;-94
2021/07/26 02:49:35;;;;;;;0.20;0.20;;;;;;;14.22;90.03;92300.91;4793075;29;20061;-95
2021/07/26 02:52:50;;;;;;;0.75;0.75;;;;;;;14.15;90.39;92292.72;4806223;29;20148;-95
2021/07/26 02:55:50;;;;;;;0.40;0.40;;;;;;;14.12;90.03;92290.72;4809482;29;20046;-95
2021/07/26 02:58:57;;;;;;;0.20;0.20;;;;;;;14.03;90.06;92295.22;4809974;29;20103;-96
2021/07/26 03:01:32;;;;;;;0.43;0.32;;;;;;;13.94;90.18;92290.72;4791306;29;20046;-95
2021/07/26 03:04:34;;;;;;;0.28;0.28;;;;;;;13.95;90.96;92287.00;4807803;29;20047;-95
2021/07/26 03:07:26;;;;;;;0.32;0.32;;;;;;;14.02;91.47;92301.56;4805187;29;20074;-94
2021/07/26 03:10:45;;;;;;;;;;;;;;;;;;;;;
2021/07/26 03:13:45;;;;;;;0.50;0.50;;;;;;;13.95;91.12;92292.25;4809917;29;20039;-96
2021/07/26 03:16:24;;;;;;;0.40;0.40;;;;;;;14.08;91.37;92308.22;4809187;29;20059;-95
2021/07/26 03:19:21;;;;;;;0.50;0.50;;;;;;;13.93;91.41;92286.53;4824316;29;20632;-93
2021/07/26 03:22:55;;;;;;;0.50;0.50;;;;;;;14.34;91.85;92345.81;4795787;29;20048;-94
2021/07/26 03:25:48;;;;;;;;;;;;;;;;;;;;;
2021/07/26 03:28:34;;;;;;;;;;;;;;;;;;;;;
2021/07/26 03:31:26;;;;;;;;;;;;;;;;;;;;;
2021/07/26 03:34:16;;;;;;;1.30;0.60;;;;;;;14.02;91.65;92322.59;4807912;29;20062;-95
2021/07/26 03:37:16;;;;;;;0.50;0.50;;;;;;;13.99;92.28;92329.25;4809218;29;20077;-96
2021/07/26 03:40:38;;;;;;;;;;;;;;;;;;;;;
2021/07/26 03:43:30;;;;;;;0.77;0.65;;;;;;;14.04;92.29;92347.53;4804566;29;20057;-94
2021/07/26 03:46:41;;;;;;;0.20;0.20;;;;;;;13.94;92.18;92338.09;4804937;29;20050;-95
2021/07/26 03:49:37;;;;;;;0.70;0.70;;;;;;;13.87;92.52;92329.91;4808304;29;20073;-94
2021/07/26 03:52:20;;;;;;;0.45;0.43;;;;;;;13.84;92.33;92342.88;4805170;29;20051;-96
2021/07/26 03:54:58;;;;;;;;;;;;;;;;;;;;;
2021/07/26 03:58:22;;;;;;;0.50;0.50;;;;;;;14.16;92.15;92387.16;4819141;29;20111;-95
2021/07/26 04:01:22;;;;;;;0.40;0.40;;;;;;;14.11;91.87;92395.19;4816084;29;20066;-96
2021/07/26 04:03:58;;;;;;;0.70;0.70;;;;;;;13.93;91.99;92367.34;4801920;29;20100;-94
2021/07/26 04:06:48;;;;;;;0.47;0.47;;;;;;;13.76;91.80;92333.91;4789978;29;20061;-95
2021/07/26 04:09:45;;;;;;;0.35;0.35;;;;;;;13.74;91.75;92330.81;4791774;29;20047;-94
2021/07/26 04:12:40;;;;;;;1.00;0.55;;;;;;;13.96;92.17;92358.84;4808608;29;20047;-95
2021/07/26 04:16:14;;;;;;;;;;;;;;;;;;;;;
2021/07/26 04:18:56;;;;;;;0.20;0.20;;;;;;;13.84;92.39;92316.56;4833790;29;20069;-96
2021/07/26 04:21:48;;;;;;;0.40;0.40;;;;;;;13.80;92.23;92311.13;4826777;29;20054;-95
2021/07/26 04:24:54;;;;;;;1.55;0.60;;;;;;;13.83;92.42;92318.44;4829127;29;20046;-94
2021/07/26 04:27:52;;;;;;;0.20;0.20;;;;;;;14.02;92.38;92354.94;4827281;29;20050;-95
2021/07/26 04:30:41;;;;;;;0.55;0.52;;;;;;;13.83;92.00;92331.59;4817040;29;20189;-94
2021/07/26 04:33:40;;;;;;;0.25;0.25;;;;;;;13.72;91.90;92319.81;4823857;29;20058;-95
2021/07/26 04:36:35;;;;;;;0.40;0.40;;;;;;;13.85;91.81;92342.59;4824811;29;20049;-94
2021/07/26 04:39:24;;;;;;;;;;;;;;;;;;;;;
2021/07/26 04:42:22;;;;;;;0.43;0.40;;;;;;;13.77;92.57;92355.72;4808319;29;20050;-94
2021/07/26 04:51:41;;;;;;;;;;;;;;;14.29;92.05;92419.66;4839301;29;20058;-94
2021/07/26 04:54:44;;;;;;;0.35;0.35;;;;;;;14.20;91.79;92411.00;4796272;29;19975;-93
2021/07/26 04:58:03;;;;;;;;;;;;;;;;;;;;;
2021/07/26 05:04:29;;;;;;;0.40;0.40;;;;;;;14.29;92.83;92414.41;4744604;30;20131;-95
2021/07/26 05:07:39;;;;;;;0.40;0.40;;;;;;;14.50;92.98;92443.53;4741829;30;20061;-94
2021/07/26 05:10:51;;;;;;;0.85;0.80;;;;;;;14.25;93.30;92399.53;4834217;29;20150;-95
2021/07/26 05:13:54;;;;;;;0.43;0.43;;;;;;;14.63;93.19;92457.63;4805750;29;20531;-94
2021/07/26 05:20:34;;;;;;;1.15;0.60;;;;;;;14.38;92.49;92403.88;4789730;29;20104;-94
2021/07/26 05:23:50;;;;;;;0.50;0.50;;;;;;;14.49;92.43;92412.25;4796676;29;20053;-94
2021/07/26 05:26:47;;;;;;;0.38;0.38;;;;;;;14.89;92.36;92454.22;4780070;29;20141;-93
2021/07/26 05:29:51;;;;;;;0.30;0.30;;;;;;;14.99;92.06;92459.16;4777290;29;20062;-94
2021/07/26 05:33:23;;;;;;;;;;;;;;;;;;;;;
2021/07/26 05:36:12;;;;;;;0.57;0.57;;;;;;;14.84;91.06;92410.34;4793865;29;20058;-94
2021/07/26 05:39:30;;;;;;;0.47;0.47;;;;;;;14.95;90.19;92424.75;4796860;29;20134;-93
2021/07/26 05:42:52;;;;;;;0.30;0.30;;;;;;;15.10;90.10;92423.44;4796744;29;20392;-94
2021/07/26 05:45:49;;;;;;;0.28;0.28;;;;;;;15.50;89.85;92460.09;4809646;29;20055;-94
2021/07/26 05:49:23;;;;;;;1.38;0.88;;;;;;;15.32;89.95;92419.03;4797953;29;20061;-93
2021/07/26 06:02:15;;;;;;;0.45;0.45;;;;;;;17.10;84.04;92465.56;4757476;30;20062;-93
2021/07/26 06:05:20;;;;;;;;;;;;;;;;;;;;;
2021/07/26 06:08:22;;;;;;;0.40;0.40;;;;;;;19.65;73.45;92439.97;4740321;30;20060;-92
2021/07/26 06:11:24;;;;;;;;;;;;;;;;;;;;;
2021/07/26 06:14:37;;;;;;;0.95;0.70;;;;;;;22.94;61.31;92471.00;4742261;30;20503;-93
2021/07/26 06:17:33;;;;;;;0.55;0.55;;;;;;;22.07;62.22;92468.31;4740456;30;20068;-93
2021/07/26 06:24:07;;;;;;;;;;;;;;;;;;;;;
2021/07/26 06:27:05;;;;;;;;;;;;;;;;;;;;;
2021/07/26 06:29:52;;;;;;;0.43;0.43;;;;;;;20.27;68.97;92450.13;4806337;29;20509;-92
2021/07/26 06:33:14;;;;;;;0.73;0.73;;;;;;;21.48;65.36;92464.28;4805876;29;20078;-93
2021/07/26 06:36:05;;;;;;;;;;;;;;;;;;;;;
2021/07/26 06:39:08;;;;;;;0.50;0.50;;;;;;;21.66;64.59;92470.72;4778043;29;20581;-92
2021/07/26 06:42:31;;;;;;;0.88;0.70;;;;;;;21.57;65.52;92486.13;4800835;29;20047;-93
2021/07/26 06:49:49;;;;;;;0.68;0.68;;;;;;;19.64;71.35;92461.59;4798189;29;20082;-94
2021/07/26 06:52:52;;;;;;;0.43;0.43;;;;;;;19.41;73.32;92485.25;4814618;29;20120;-94
2021/07/26 06:55:41;;;;;;;1.17;0.52;;;;;;;19.06;73.54;92475.28;4792441;29;20107;-93
2021/07/26 06:59:32;;;;;;;0.30;0.30;;;;;;;18.46;77.24;92475.91;4820584;29;20058;-92
2021/07/26 07:02:23;;;;;;;0.10;0.10;;;;;;;17.88;76.19;92478.72;4811989;29;20046;-94
2021/07/26 07:05:36;;;;;;;0.35;0.35;;;;;;;17.56;80.57;92503.34;4798079;29;20042;-91
2021/07/26 07:08:32;;;;;;;;;;;;;;;;;;;;;
2021/07/26 07:11:46;;;;;;;;;;;;;;;;;;;;;
2021/07/26 07:14:53;;;;;;;;;;;;;;;;;;;;;
2021/07/26 07:18:28;;;;;;;0.40;0.40;;;;;;;17.61;76.69;92561.41;4808953;29;20475;-93
2021/07/26 07:25:28;;;;;;;;;;;;;;;;;;;;;
2021/07/26 07:32:14;;;;;;;;;;;;;;;;;;;;;
2021/07/26 07:35:29;;;;;;;;;;;;;;;;;;;;;
2021/07/26 07:46:27;;;;;;;;;;;;;;;;;;;;;
2021/07/26 07:49:57;;;;;;;;;;;;;;;;;;;;;
2021/07/26 08:29:38;;;;;;;0.60;0.60;;;;;;;20.14;70.71;92585.75;5089531;27;20398;-79
2021/07/26 08:32:04;;;;;;;0.45;0.45;;;;;;;20.16;77.75;92588.09;5075813;28;20045;-78
2021/07/26 08:34:29;;;;;;;0.50;0.50;;;;;;;20.26;77.10;92586.78;5087148;28;20045;-80
2021/07/26 08:36:55;;;;;;;0.50;0.50;;;;;;;19.96;78.80;92589.88;5088036;28;20098;-80
2021/07/26 08:39:21;;;;;;;0.60;0.60;;;;;;;19.52;79.03;92600.47;5088294;28;20099;-80
2021/07/26 08:41:47;;;;;;;0.30;0.30;;;;;;;19.70;73.98;92601.75;5069462;28;20039;-78
2021/07/26 08:44:13;;;;;;;0.93;0.85;;;;;;;19.95;72.04;92597.09;5087327;28;20032;-78
2021/07/26 08:46:41;;;;;;;0.45;0.45;;;;;;;19.70;73.38;92600.97;5072439;28;20049;-78
2021/07/26 08:49:07;;;;;;;1.02;0.80;;;;;;;20.32;66.94;92606.69;5049069;28;20036;-77
2021/07/26 08:51:33;;;;;;;0.50;0.50;;;;;;;20.57;66.37;92600.09;5067188;28;20098;-77
2021/07/26 08:54:01;;;;;;;0.40;0.40;;;;;;;20.47;70.14;92602.50;5067006;28;20040;-77
2021/07/26 08:56:26;;;;;;;0.30;0.30;;;;;;;20.51;66.21;92606.78;5076170;28;20043;-78
2021/07/26 08:58:52;;;;;;;0.40;0.40;;;;;;;20.34;68.11;92615.09;5086336;28;20040;-78
2021/07/26 09:01:17;;;;;;;0.40;0.40;;;;;;;20.18;69.61;92615.84;5085667;28;20024;-78
2021/07/26 09:03:44;;;;;;;0.60;0.60;;;;;;;20.34;73.80;92618.53;5066670;28;20169;-78
2021/07/26 09:06:10;;;;;;;0.30;0.30;;;;;;;19.89;69.77;92611.72;5066708;28;20033;-78
2021/07/26 09:08:37;;;;;;;0.43;0.43;;;;;;;20.23;68.87;92620.16;5065666;28;20060;-77
2021/07/26 09:11:05;;;;;;;1.95;1.10;;;;;;;20.16;65.31;92620.75;5068957;28;20496;-77
2021/07/26 09:13:45;;;;;;;0.38;0.38;;;;;;;20.46;65.77;92617.66;5066877;28;20044;-77
2021/07/26 09:16:14;;;;;;;2.15;1.50;;;;;;;20.93;64.14;92624.81;5083393;28;20040;-77
2021/07/26 09:18:42;;;;;;;0.40;0.40;;;;;;;20.74;67.40;92624.78;5085303;28;20064;-77
2021/07/26 09:21:07;;;;;;;0.40;0.40;;;;;;;20.63;67.34;92627.19;5085615;28;20429;-77
2021/07/26 09:23:36;;;;;;;0.35;0.35;;;;;;;20.26;65.05;92618.69;5083006;28;20036;-77
2021/07/26 09:26:25;;;;;;;0.25;0.25;;;;;;;20.51;63.93;92616.63;5080479;28;20032;-78
2021/07/26 09:28:51;;;;;;;0.55;0.55;;;;;;;20.85;61.11;92617.81;5068951;28;20530;-77
2021/07/26 09:31:16;;;;;;;0.45;0.45;;;;;;;21.12;54.84;92612.66;5062512;28;20079;-78
2021/07/26 09:33:43;;;;;;;0.40;0.40;;;;;;;20.77;63.98;92616.88;5064629;28;20060;-77
2021/07/26 09:36:08;;;;;;;0.73;0.73;;;;;;;20.82;66.37;92617.72;5076673;28;20134;-77
2021/07/26 09:38:36;;;;;;;0.35;0.35;;;;;;;20.97;66.17;92614.28;5080051;28;20115;-78
2021/07/26 09:41:04;;;;;;;2.40;0.63;;;;;;;20.99;61.96;92618.13;5053827;28;20159;-78
2021/07/26 09:43:30;;;;;;;0.75;0.68;;;;;;;21.15;58.98;92614.66;5061624;28;20031;-78
2021/07/26 09:45:56;;;;;;;0.63;0.60;;;;;;;20.78;62.90;92623.75;5072542;28;20036;-78
2021/07/26 09:48:26;;;;;;;0.47;0.47;;;;;;;20.82;61.64;92628.38;5055624;28;20056;-78
2021/07/26 09:50:52;;;;;;;0.30;0.30;;;;;;;21.17;63.21;92623.81;5074234;28;20041;-77
2021/07/26 09:53:21;;;;;;;0.47;0.47;;;;;;;21.11;63.66;92619.13;5072274;28;20040;-78
2021/07/26 09:55:51;;;;;;;1.00;0.90;;;;;;;20.79;60.27;92621.84;5072997;28;20510;-77
2021/07/26 09:58:20;;;;;;;0.43;0.43;;;;;;;20.32;63.36;92617.31;5072765;28;20028;-76
2021/07/26 10:00:46;;;;;;;0.98;0.50;;;;;;;20.39;64.49;92625.47;5058896;28;20037;-77
2021/07/26 10:03:15;;;;;;;0.40;0.40;;;;;;;20.31;64.25;92623.75;5068919;28;20044;-77
2021/07/26 10:05:43;;;;;;;1.75;0.95;;;;;;;20.91;62.42;92619.06;5072849;28;20081;-81
2021/07/26 10:08:10;;;;;;;0.38;0.38;;;;;;;21.22;59.79;92620.13;5056865;28;20620;-78
2021/07/26 10:10:39;;;;;;;0.52;0.50;;;;;;;21.24;59.60;92620.53;5072693;28;20085;-77
2021/07/26 10:13:07;;;;;;;0.43;0.43;;;;;;;21.23;62.44;92616.31;5072074;28;20075;-79
2021/07/26 10:15:33;;;;;;;0.68;0.68;;;;;;;20.78;63.37;92614.97;5064517;28;20033;-78
2021/07/26 10:17:59;;;;;;;1.80;0.95;;;;;;;21.52;57.10;92616.94;5051347;28;20124;-77
2021/07/26 10:20:28;;;;;;;0.50;0.50;;;;;;;20.54;61.62;92624.69;5050574;28;20123;-77
2021/07/26 10:23:01;;;;;;;0.60;0.60;;;;;;;20.89;63.34;92629.28;5050859;28;20025;-78
2021/07/26 10:25:58;;;;;;;0.20;0.20;;;;;;;20.95;61.18;92630.56;5052595;28;20495;-78
2021/07/26 10:28:54;;;;;;;0.45;0.40;;;;;;;20.96;59.91;92626.81;5061823;28;20049;-78
2021/07/26 10:31:34;;;;;;;0.47;0.47;;;;;;;21.04;60.87;92618.97;5059551;28;20045;-78
2021/07/26 10:34:00;;;;;;;0.88;0.88;;;;;;;21.27;60.25;92627.81;5048924;28;20550;-77
2021/07/26 10:36:41;;;;;;;0.65;0.65;;;;;;;21.35;60.68;92618.88;5043520;28;20032;-78
2021/07/26 10:39:11;;;;;;;0.60;0.43;;;;;;;21.07;61.59;92623.59;5070805;28;20450;-78
2021/07/26 10:41:43;;;;;;;0.77;0.68;;;;;;;21.11;61.89;92624.44;5054039;28;20440;-78
2021/07/26 10:44:30;;;;;;;0.75;0.70;;;;;;;21.15;60.81;92626.06;5072078;28;20044;-77
2021/07/26 10:47:03;;;;;;;0.30;0.30;;;;;;;20.78;64.55;92629.06;5070247;28;20398;-77
2021/07/26 10:49:35;;;;;;;0.30;0.30;;;;;;;19.89;68.45;92629.53;5071664;28;20090;-78
2021/07/26 10:52:01;;;;;;;1.02;0.93;;;;;;;19.75;69.52;92624.63;5063832;28;20467;-77
2021/07/26 10:54:34;;;;;;;0.30;0.30;;;;;;;20.02;67.57;92617.75;5050696;28;20103;-77
2021/07/26 10:57:00;;;;;;;0.35;0.35;;;;;;;20.07;67.95;92616.72;5051308;28;20506;-77
2021/07/26 10:59:26;;;;;;;0.50;0.50;;;;;;;20.05;67.99;92613.63;5050444;28;20033;-78
2021/07/26 11:02:02;;;;;;;4.55;0.90;;;;;;;19.97;70.25;92615.31;5057056;28;20086;-77
2021/07/26 11:04:33;;;;;;;0.52;0.52;;;;;;;19.86;71.65;92622.25;5071355;28;20399;-77
2021/07/26 11:07:00;;;;;;;0.57;0.57;;;;;;;20.01;69.90;92612.75;5054337;28;20048;-77
2021/07/26 11:09:31;;;;;;;0.30;0.30;;;;;;;20.20;67.37;92604.91;5072881;28;20036;-79
2021/07/26 11:11:58;;;;;;;0.63;0.60;;;;;;;21.03;66.57;92601.44;5076008;28;20051;-78
2021/07/26 11:14:24;;;;;;;0.30;0.30;;;;;;;21.50;66.17;92595.19;5075399;28;20429;-79
2021/07/26 11:17:11;;;;;;;0.75;0.73;;;;;;;21.88;64.05;92597.03;5075421;28;20039;-78
2021/07/26 11:19:49;;;;;;;0.70;0.70;;;;;;;22.01;63.14;92603.00;5074972;28;20040;-79
2021/07/26 11:22:15;;;;;;;0.47;0.47;;;;;;;22.04;62.11;92604.94;5074661;28;20423;-81
2021/07/26 11:24:41;;;;;;;0.60;0.57;;;;;;;21.24;65.95;92615.22;5072877;28;20040;-82
2021/07/26 11:27:14;;;;;;;0.40;0.40;;;;;;;21.18;68.29;92608.63;5072091;28;20233;-80
2021/07/26 11:29:43;;;;;;;0.85;0.45;;;;;;;20.69;69.70;92604.56;5050967;28;20132;-80
2021/07/26 11:32:12;;;;;;;0.38;0.38;;;;;;;20.93;67.60;92603.53;5059963;28;20127;-79
2021/07/26 11:34:38;;;;;;;0.82;0.50;;;;;;;20.85;68.74;92607.19;5058093;28;20551;-78
2021/07/26 11:37:08;;;;;;;0.47;0.47;;;;;;;21.02;67.90;92606.00;5035084;28;20053;-79
2021/07/26 11:39:44;;;;;;;0.82;0.80;;;;;;;21.11;66.88;92614.56;5054081;28;20086;-79
2021/07/26 11:42:10;;;;;;;0.40;0.40;;;;;;;21.44;63.47;92608.03;5036323;28;20049;-80
2021/07/26 11:44:37;;;;;;;1.00;0.80;;;;;;;21.55;61.61;92606.34;5054534;28;20036;-79
2021/07/26 11:47:03;;;;;;;0.65;0.65;;;;;;;21.68;62.56;92625.59;5053947;28;20052;-80
2021/07/26 11:49:28;;;;;;;0.70;0.60;;;;;;;21.42;64.50;92608.38;5053458;28;20348;-80
2021/07/26 11:52:08;;;;;;;0.30;0.30;;;;;;;21.52;65.40;92612.38;5055066;28;20036;-80
2021/07/26 11:54:34;;;;;;;2.30;0.60;;;;;;;21.32;66.05;92618.78;5054999;28;20155;-80
2021/07/26 11:57:10;;;;;;;0.20;0.20;;;;;;;20.93;67.44;92624.06;5053360;28;20166;-80
2021/07/26 11:59:36;;;;;;;0.35;0.35;;;;;;;20.90;68.83;92619.44;5054187;28;20096;-80
2021/07/26 12:02:14;;;;;;;0.57;0.50;;;;;;;20.50;70.71;92631.81;5061878;28;20050;-80
2021/07/26 12:04:40;;;;;;;0.63;0.57;;;;;;;20.24;71.25;92621.72;5075993;28;20037;-78
2021/07/26 12:07:07;;;;;;;0.73;0.55;;;;;;;20.13;72.27;92626.75;5073285;28;20078;-79
2021/07/26 12:09:35;;;;;;;0.55;0.52;;;;;;;20.32;70.53;92617.31;5072814;28;20036;-80
2021/07/26 12:12:08;;;;;;;0.32;0.32;;;;;;;20.41;69.87;92607.28;5072925;28;20040;-81
2021/07/26 12:14:34;;;;;;;0.60;0.57;;;;;;;20.75;68.18;92605.81;5072736;28;20040;-78
2021/07/26 12:17:03;;;;;;;0.82;0.80;;;;;;;20.76;68.67;92609.22;5073172;28;20047;-78
2021/07/26 12:19:29;;;;;;;0.60;0.60;;;;;;;21.11;67.55;92605.81;5073542;28;20037;-80
2021/07/26 12:21:55;;;;;;;0.65;0.65;;;;;;;20.87;67.46;92607.56;5070024;28;20285;-80
2021/07/26 12:24:50;;;;;;;1.00;0.93;;;;;;;20.72;66.55;92613.72;5057554;28;20055;-80
2021/07/26 12:27:27;;;;;;;1.40;1.30;;;;;;;20.78;69.13;92621.09;5054113;28;20033;-80
2021/07/26 12:29:57;;;;;;;0.82;0.80;;;;;;;20.96;68.49;92618.81;5072376;28;20028;-80
2021/07/26 12:32:24;;;;;;;0.80;0.80;;;;;;;20.22;70.37;92613.31;5071135;28;20037;-80
2021/07/26 12:35:21;;;;;;;1.25;0.80;;;;;;;20.52;70.64;92610.19;5073638;28;20413;-79
2021/07/26 12:38:00;;;;;;;0.75;0.65;;;;;;;21.30;70.32;92605.03;5072232;28;20089;-78
2021/07/26 12:40:26;;;;;;;0.85;0.50;;;;;;;21.14;70.59;92613.88;5070874;28;20045;-78
2021/07/26 12:43:18;;;;;;;1.08;0.80;;;;;;;21.45;70.24;92612.22;5073343;28;20029;-78
2021/07/26 12:45:59;;;;;;;1.83;1.27;;;;;;;21.59;69.18;92611.72;5063791;28;20044;-78
2021/07/26 12:48:26;;;;;;;0.57;0.57;;;;;;;21.19;69.98;92615.50;5072211;28;20075;-79
2021/07/26 12:50:53;;;;;;;1.17;0.85;;;;;;;20.99;70.60;92618.13;5038522;28;20032;-77
2021/07/26 12:53:20;;;;;;;1.05;0.63;;;;;;;21.14;69.96;92618.41;5073193;28;20061;-78
2021/07/26 12:55:47;;;;;;;0.70;0.70;;;;;;;21.02;70.71;92606.00;5072420;28;20078;-79
2021/07/26 12:58:17;;;;;;;0.40;0.40;;;;;;;21.13;69.62;92608.91;5072650;28;20033;-78
2021/07/26 13:00:44;;;;;;;0.60;0.60;;;;;;;21.06;70.43;92606.09;5072717;28;20040;-78
2021/07/26 13:03:14;;;;;;;1.67;0.95;;;;;;;21.02;71.00;92602.59;5054102;28;20544;-77
2021/07/26 13:05:44;;;;;;;0.68;0.55;;;;;;;21.24;69.50;92612.56;5050221;28;20064;-79
2021/07/26 13:08:11;;;;;;;0.75;0.50;;;;;;;20.38;72.30;92605.31;5052626;28;20041;-79
2021/07/26 13:10:38;;;;;;;0.93;0.80;;;;;;;20.51;72.33;92614.75;5050817;28;20111;-80
2021/07/26 13:13:05;;;;;;;0.75;0.50;;;;;;;20.79;71.38;92608.56;5052036;28;20104;-79
2021/07/26 13:15:31;;;;;;;0.93;0.80;;;;;;;20.86;70.37;92608.72;5054586;28;20490;-79
2021/07/26 13:17:58;;;;;;;0.93;0.65;;;;;;;20.97;69.79;92604.38;5060570;28;20111;-79
2021/07/26 13:20:24;;;;;;;1.83;0.85;;;;;;;21.15;69.31;92609.31;5055507;28;20037;-79
2021/07/26 13:22:49;;;;;;;0.50;0.50;;;;;;;21.16;69.12;92602.88;5056633;28;20538;-79
2021/07/26 13:25:15;;;;;;;1.02;0.68;;;;;;;20.90;70.85;92606.91;5055687;28;20036;-79
2021/07/26 13:27:41;;;;;;;0.47;0.47;;;;;;;20.93;70.42;92603.53;5059802;28;20057;-80
2021/07/26 13:30:07;;;;;;;1.80;1.10;;;;;;;21.03;70.16;92606.78;5075266;28;20119;-79
2021/07/26 13:32:33;;;;;;;1.27;1.05;;;;;;;21.25;67.44;92597.34;5075268;28;20414;-78
2021/07/26 13:34:59;;;;;;;0.50;0.50;;;;;;;21.58;64.85;92594.22;5076904;28;20082;-79
2021/07/26 13:37:25;;;;;;;1.30;1.20;;;;;;;22.02;63.25;92585.88;5076178;28;20498;-79
2021/07/26 13:39:50;;;;;;;0.85;0.60;;;;;;;22.15;61.44;92595.22;5075427;28;20028;-78
2021/07/26 13:42:17;;;;;;;1.20;0.70;;;;;;;21.94;60.71;92594.88;5075997;28;20135;-79
2021/07/26 13:44:43;;;;;;;0.50;0.50;;;;;;;21.51;62.73;92588.78;5075359;28;20060;-79
2021/07/26 13:47:09;;;;;;;0.77;0.77;;;;;;;21.49;63.10;92586.44;5075688;28;20048;-78
2021/07/26 13:49:34;;;;;;;1.23;0.93;;;;;;;21.51;63.33;92588.78;5074358;28;20098;-78
2021/07/26 13:52:00;;;;;;;2.33;1.75;;;;;;;21.55;63.78;92590.38;5073937;28;20032;-79
2021/07/26 13:54:27;;;;;;;0.95;0.73;;;;;;;21.21;65.65;92598.06;5073740;28;20060;-79
2021/07/26 13:56:52;;;;;;;0.47;0.47;;;;;;;21.73;64.14;92595.25;5075386;28;20039;-79
2021/07/26 13:59:18;;;;;;;1.15;0.77;;;;;;;21.71;64.45;92589.53;5073742;28;20028;-80
2021/07/26 14:01:44;;;;;;;1.02;0.88;;;;;;;21.97;64.40;92592.25;5069830;28;20040;-79
2021/07/26 14:04:10;;;;;;;0.82;0.80;;;;;;;22.06;64.75;92602.69;5055664;28;20055;-80
2021/07/26 14:06:35;;;;;;;1.38;1.20;;;;;;;21.94;64.15;92600.22;5054771;28;20037;-79
2021/07/26 14:09:01;;;;;;;0.77;0.60;;;;;;;22.47;60.71;92595.00;5036757;28;20123;-79
2021/07/26 14:11:26;;;;;;;1.65;1.50;;;;;;;22.61;59.72;92591.81;5052254;28;20115;-79
2021/07/26 14:13:52;;;;;;;1.95;1.38;;;;;;;22.87;57.39;92596.34;5036754;28;20147;-79
2021/07/26 14:16:18;;;;;;;1.10;0.75;;;;;;;23.21;57.93;92591.13;5055562;28;20086;-79
2021/07/26 14:18:43;;;;;;;0.57;0.57;;;;;;;23.34;58.20;92587.09;5055140;28;20478;-78
2021/07/26 14:21:09;;;;;;;2.13;1.05;;;;;;;23.21;57.93;92591.88;5055622;28;20523;-80
2021/07/26 14:23:34;;;;;;;1.55;1.15;;;;;;;22.84;59.04;92599.75;5054378;28;20037;-78
2021/07/26 14:26:00;;;;;;;1.73;0.98;;;;;;;22.69;58.78;92590.75;5054858;28;20441;-78
2021/07/26 14:28:26;;;;;;;0.68;0.68;;;;;;;22.31;61.21;92586.38;5065567;28;20090;-77
2021/07/26 14:30:52;;;;;;;1.33;1.17;;;;;;;22.14;61.22;92582.28;5074346;28;20059;-79
2021/07/26 14:33:17;;;;;;;0.80;0.77;;;;;;;21.89;61.90;92582.63;5074702;28;20512;-79
2021/07/26 14:35:44;;;;;;;2.20;1.05;;;;;;;21.24;64.26;92583.28;5074137;28;20029;-78
2021/07/26 14:38:10;;;;;;;0.40;0.40;;;;;;;21.15;65.23;92577.38;5074460;28;20082;-79
2021/07/26 14:40:36;;;;;;;0.90;0.60;;;;;;;21.18;65.08;92568.69;5072685;28;20040;-80
2021/07/26 14:43:03;;;;;;;1.75;1.45;;;;;;;21.09;66.24;92573.44;5074003;28;20393;-80
2021/07/26 14:45:30;;;;;;;2.17;1.35;;;;;;;21.08;66.42;92577.25;5074461;28;20040;-79
2021/07/26 14:47:58;;;;;;;0.98;0.73;;;;;;;21.20;66.77;92575.19;5073249;28;20039;-80
2021/07/26 14:50:23;;;;;;;0.75;0.73;;;;;;;21.31;64.34;92570.09;5073866;28;20537;-80
2021/07/26 14:52:49;;;;;;;2.42;1.42;;;;;;;21.09;63.77;92570.78;5073867;28;20379;-80
2021/07/26 14:55:15;;;;;;;1.88;1.20;;;;;;;21.10;65.37;92564.38;5074220;28;20024;-80
2021/07/26 14:57:41;;;;;;;1.58;1.00;;;;;;;20.99;66.00;92572.13;5072544;28;20036;-82
2021/07/26 15:00:07;;;;;;;1.02;0.90;;;;;;;21.03;66.98;92578.28;5073019;28;20468;-78
2021/07/26 15:02:33;;;;;;;1.58;1.00;;;;;;;21.08;66.46;92574.59;5060780;28;20036;-77
2021/07/26 15:04:59;;;;;;;1.33;0.88;;;;;;;21.10;66.67;92570.44;5055134;28;20489;-80
2021/07/26 15:07:24;;;;;;;0.77;0.70;;;;;;;21.06;66.23;92579.47;5051873;28;20410;-79
2021/07/26 15:09:50;;;;;;;1.40;0.90;;;;;;;21.01;67.40;92577.88;5053589;28;20036;-78
2021/07/26 15:12:15;;;;;;;2.17;1.25;;;;;;;20.87;67.37;92570.34;5053596;28;20045;-78
2021/07/26 15:14:41;;;;;;;0.82;0.70;;;;;;;20.86;67.90;92568.81;5051788;28;20445;-78
2021/07/26 15:17:07;;;;;;;1.10;0.88;;;;;;;20.75;67.93;92570.47;5052321;28;20041;-77
2021/07/26 15:19:33;;;;;;;1.60;1.50;;;;;;;20.75;67.51;92575.78;5052237;28;20075;-79
2021/07/26 15:21:59;;;;;;;2.05;1.05;;;;;;;20.77;67.96;92573.56;5052728;28;20029;-78
2021/07/26 15:24:25;;;;;;;1.00;0.70;;;;;;;20.78;67.87;92580.41;5052055;28;20052;-78
2021/07/26 15:26:51;;;;;;;1.02;0.93;;;;;;;20.85;68.30;92572.59;5051769;28;20029;-79
2021/07/26 15:29:17;;;;;;;6.93;1.23;;;;;;;20.91;67.20;92565.09;5052939;28;20048;-82
2021/07/26 15:31:43;;;;;;;0.70;0.63;;;;;;;20.58;68.04;92577.72;5071150;28;20074;-79
2021/07/26 15:34:09;;;;;;;1.67;1.20;;;;;;;20.41;68.04;92572.72;5073202;28;20397;-82
2021/07/26 15:36:34;;;;;;;1.25;0.98;;;;;;;20.37;68.35;92579.84;5071179;28;20043;-81
2021/07/26 15:39:00;;;;;;;1.02;0.73;;;;;;;20.32;68.68;92580.09;5072681;28;20028;-80